sensor_id;sensor_type;location;lat;lon;timestamp;P1;durP1;ratioP1;P2;durP2;ratioP2
32826;SDS011;51059;42.058;27.986;2022-08-01T00:00:12;20.05;;;12.68;;
32826;SDS011;51059;42.058;27.986;2022-08-01T00:02:38;22.27;;;14.60;;
32826;SDS011;51059;42.058;27.986;2022-08-01T00:05:04;20.00;;;13.77;;
32826;SDS011;51059;42.058;27.986;2022-08-01T00:07:31;21.10;;;13.95;;
32826;SDS011;51059;42.058;27.986;2022-08-01T00:09:57;16.27;;;12.10;;
32826;SDS011;51059;42.058;27.986;2022-08-01T00:12:23;16.67;;;11.03;;
32826;SDS011;51059;42.058;27.986;2022-08-01T00:14:49;16.23;;;11.55;;
32826;SDS011;51059;42.058;27.986;2022-08-01T00:17:14;17.60;;;12.30;;
32826;SDS011;51059;42.058;27.986;2022-08-01T00:19:40;18.63;;;11.83;;
32826;SDS011;51059;42.058;27.986;2022-08-01T00:22:06;19.63;;;13.40;;
32826;SDS011;51059;42.058;27.986;2022-08-01T00:24:31;20.65;;;12.18;;
32826;SDS011;51059;42.058;27.986;2022-08-01T00:26:57;21.37;;;14.03;;
32826;SDS011;51059;42.058;27.986;2022-08-01T00:29:22;19.13;;;13.80;;
32826;SDS011;51059;42.058;27.986;2022-08-01T00:31:48;18.98;;;14.07;;
32826;SDS011;51059;42.058;27.986;2022-08-01T00:34:13;17.55;;;13.30;;
32826;SDS011;51059;42.058;27.986;2022-08-01T00:36:39;17.80;;;11.90;;
32826;SDS011;51059;42.058;27.986;2022-08-01T00:39:04;16.93;;;12.30;;
32826;SDS011;51059;42.058;27.986;2022-08-01T00:41:30;16.30;;;12.33;;
32826;SDS011;51059;42.058;27.986;2022-08-01T00:43:56;17.30;;;13.80;;
32826;SDS011;51059;42.058;27.986;2022-08-01T00:46:21;19.57;;;14.97;;
32826;SDS011;51059;42.058;27.986;2022-08-01T00:48:47;18.33;;;13.20;;
32826;SDS011;51059;42.058;27.986;2022-08-01T00:51:13;19.90;;;13.60;;
32826;SDS011;51059;42.058;27.986;2022-08-01T00:53:38;17.80;;;13.40;;
32826;SDS011;51059;42.058;27.986;2022-08-01T00:56:04;18.27;;;13.90;;
32826;SDS011;51059;42.058;27.986;2022-08-01T00:58:30;18.20;;;14.25;;
32826;SDS011;51059;42.058;27.986;2022-08-01T01:00:57;17.80;;;15.20;;
32826;SDS011;51059;42.058;27.986;2022-08-01T01:03:23;15.43;;;12.50;;
32826;SDS011;51059;42.058;27.986;2022-08-01T01:08:39;19.30;;;17.33;;
32826;SDS011;51059;42.058;27.986;2022-08-01T01:11:21;17.00;;;15.20;;
32826;SDS011;51059;42.058;27.986;2022-08-01T01:13:52;15.30;;;13.23;;
32826;SDS011;51059;42.058;27.986;2022-08-01T01:16:20;14.13;;;12.73;;
32826;SDS011;51059;42.058;27.986;2022-08-01T01:18:47;15.33;;;13.83;;
32826;SDS011;51059;42.058;27.986;2022-08-01T01:23:46;14.53;;;13.13;;
32826;SDS011;51059;42.058;27.986;2022-08-01T01:31:54;14.63;;;13.13;;
32826;SDS011;51059;42.058;27.986;2022-08-01T01:34:21;14.85;;;13.13;;
32826;SDS011;51059;42.058;27.986;2022-08-01T01:36:48;15.90;;;13.10;;
32826;SDS011;51059;42.058;27.986;2022-08-01T01:39:15;13.85;;;12.35;;
32826;SDS011;51059;42.058;27.986;2022-08-01T01:41:41;13.27;;;11.97;;
32826;SDS011;51059;42.058;27.986;2022-08-01T01:44:08;15.27;;;13.87;;
32826;SDS011;51059;42.058;27.986;2022-08-01T01:46:34;14.67;;;13.17;;
32826;SDS011;51059;42.058;27.986;2022-08-01T01:49:01;14.47;;;13.00;;
32826;SDS011;51059;42.058;27.986;2022-08-01T01:51:27;14.40;;;13.10;;
32826;SDS011;51059;42.058;27.986;2022-08-01T01:53:54;14.00;;;12.47;;
32826;SDS011;51059;42.058;27.986;2022-08-01T01:56:20;15.17;;;13.60;;
32826;SDS011;51059;42.058;27.986;2022-08-01T01:58:51;15.20;;;13.77;;
32826;SDS011;51059;42.058;27.986;2022-08-01T02:01:19;14.60;;;13.23;;
32826;SDS011;51059;42.058;27.986;2022-08-01T02:03:47;14.20;;;12.80;;
32826;SDS011;51059;42.058;27.986;2022-08-01T02:06:13;14.77;;;13.30;;
32826;SDS011;51059;42.058;27.986;2022-08-01T02:08:40;15.20;;;13.57;;
32826;SDS011;51059;42.058;27.986;2022-08-01T02:11:07;14.87;;;13.43;;
32826;SDS011;51059;42.058;27.986;2022-08-01T02:13:56;15.63;;;13.07;;
32826;SDS011;51059;42.058;27.986;2022-08-01T02:16:24;13.63;;;12.33;;
32826;SDS011;51059;42.058;27.986;2022-08-01T02:18:51;13.83;;;12.53;;
32826;SDS011;51059;42.058;27.986;2022-08-01T02:21:19;13.50;;;12.23;;
32826;SDS011;51059;42.058;27.986;2022-08-01T02:23:50;14.03;;;12.50;;
32826;SDS011;51059;42.058;27.986;2022-08-01T02:26:16;14.63;;;13.20;;
32826;SDS011;51059;42.058;27.986;2022-08-01T02:28:45;15.30;;;12.43;;
32826;SDS011;51059;42.058;27.986;2022-08-01T02:31:14;13.97;;;12.67;;
32826;SDS011;51059;42.058;27.986;2022-08-01T02:33:48;15.10;;;13.00;;
32826;SDS011;51059;42.058;27.986;2022-08-01T02:36:27;13.97;;;12.57;;
32826;SDS011;51059;42.058;27.986;2022-08-01T02:38:54;13.20;;;12.00;;
32826;SDS011;51059;42.058;27.986;2022-08-01T02:41:21;14.57;;;13.03;;
32826;SDS011;51059;42.058;27.986;2022-08-01T02:43:49;14.80;;;12.83;;
32826;SDS011;51059;42.058;27.986;2022-08-01T02:46:17;15.03;;;12.60;;
32826;SDS011;51059;42.058;27.986;2022-08-01T02:48:47;15.07;;;12.47;;
32826;SDS011;51059;42.058;27.986;2022-08-01T02:51:13;13.80;;;12.43;;
32826;SDS011;51059;42.058;27.986;2022-08-01T02:53:39;15.17;;;12.50;;
32826;SDS011;51059;42.058;27.986;2022-08-01T02:56:06;13.37;;;11.97;;
32826;SDS011;51059;42.058;27.986;2022-08-01T02:58:33;13.83;;;11.07;;
32826;SDS011;51059;42.058;27.986;2022-08-01T03:01:00;11.95;;;10.80;;
32826;SDS011;51059;42.058;27.986;2022-08-01T03:03:27;13.50;;;11.67;;
32826;SDS011;51059;42.058;27.986;2022-08-01T03:05:53;17.33;;;11.73;;
32826;SDS011;51059;42.058;27.986;2022-08-01T03:08:19;11.93;;;10.70;;
32826;SDS011;51059;42.058;27.986;2022-08-01T03:10:45;11.80;;;10.47;;
32826;SDS011;51059;42.058;27.986;2022-08-01T03:13:12;12.80;;;9.97;;
32826;SDS011;51059;42.058;27.986;2022-08-01T03:15:39;11.60;;;10.27;;
32826;SDS011;51059;42.058;27.986;2022-08-01T03:18:06;11.13;;;10.03;;
32826;SDS011;51059;42.058;27.986;2022-08-01T03:20:33;11.90;;;10.47;;
32826;SDS011;51059;42.058;27.986;2022-08-01T03:23:03;12.50;;;10.20;;
32826;SDS011;51059;42.058;27.986;2022-08-01T03:25:31;11.87;;;9.23;;
32826;SDS011;51059;42.058;27.986;2022-08-01T03:27:59;10.53;;;9.50;;
32826;SDS011;51059;42.058;27.986;2022-08-01T03:30:27;12.97;;;10.20;;
32826;SDS011;51059;42.058;27.986;2022-08-01T03:32:53;11.63;;;9.67;;
32826;SDS011;51059;42.058;27.986;2022-08-01T03:35:19;12.77;;;9.70;;
32826;SDS011;51059;42.058;27.986;2022-08-01T03:37:48;10.90;;;9.90;;
32826;SDS011;51059;42.058;27.986;2022-08-01T03:40:26;10.55;;;9.23;;
32826;SDS011;51059;42.058;27.986;2022-08-01T03:43:05;12.70;;;8.73;;
32826;SDS011;51059;42.058;27.986;2022-08-01T03:45:39;11.93;;;9.83;;
32826;SDS011;51059;42.058;27.986;2022-08-01T03:48:09;9.10;;;8.30;;
32826;SDS011;51059;42.058;27.986;2022-08-01T03:50:36;8.40;;;7.60;;
32826;SDS011;51059;42.058;27.986;2022-08-01T03:53:05;9.80;;;7.90;;
32826;SDS011;51059;42.058;27.986;2022-08-01T03:55:32;7.30;;;6.57;;
32826;SDS011;51059;42.058;27.986;2022-08-01T03:57:58;8.85;;;7.13;;
32826;SDS011;51059;42.058;27.986;2022-08-01T04:00:24;8.02;;;6.47;;
32826;SDS011;51059;42.058;27.986;2022-08-01T04:02:51;8.60;;;6.80;;
32826;SDS011;51059;42.058;27.986;2022-08-01T04:05:17;9.60;;;6.30;;
32826;SDS011;51059;42.058;27.986;2022-08-01T04:07:47;7.32;;;6.10;;
32826;SDS011;51059;42.058;27.986;2022-08-01T04:10:15;7.45;;;5.85;;
32826;SDS011;51059;42.058;27.986;2022-08-01T04:12:41;8.13;;;7.32;;
32826;SDS011;51059;42.058;27.986;2022-08-01T04:15:08;11.55;;;10.52;;
32826;SDS011;51059;42.058;27.986;2022-08-01T04:17:34;7.03;;;6.00;;
32826;SDS011;51059;42.058;27.986;2022-08-01T04:19:59;9.13;;;6.00;;
32826;SDS011;51059;42.058;27.986;2022-08-01T04:22:25;6.03;;;5.50;;
32826;SDS011;51059;42.058;27.986;2022-08-01T04:24:51;11.98;;;5.50;;
32826;SDS011;51059;42.058;27.986;2022-08-01T04:27:22;7.35;;;5.10;;
32826;SDS011;51059;42.058;27.986;2022-08-01T04:29:49;4.90;;;4.32;;
32826;SDS011;51059;42.058;27.986;2022-08-01T04:32:16;6.25;;;4.30;;
32826;SDS011;51059;42.058;27.986;2022-08-01T04:34:46;6.55;;;4.07;;
32826;SDS011;51059;42.058;27.986;2022-08-01T04:37:13;11.75;;;4.72;;
32826;SDS011;51059;42.058;27.986;2022-08-01T04:39:41;9.10;;;4.10;;
32826;SDS011;51059;42.058;27.986;2022-08-01T04:42:07;5.88;;;4.20;;
32826;SDS011;51059;42.058;27.986;2022-08-01T04:44:33;3.92;;;3.53;;
32826;SDS011;51059;42.058;27.986;2022-08-01T04:47:02;6.88;;;3.72;;
32826;SDS011;51059;42.058;27.986;2022-08-01T04:49:32;12.63;;;3.67;;
32826;SDS011;51059;42.058;27.986;2022-08-01T04:51:58;5.22;;;3.78;;
32826;SDS011;51059;42.058;27.986;2022-08-01T04:54:25;5.28;;;3.55;;
32826;SDS011;51059;42.058;27.986;2022-08-01T04:56:55;4.18;;;3.80;;
32826;SDS011;51059;42.058;27.986;2022-08-01T04:59:25;4.00;;;3.30;;
32826;SDS011;51059;42.058;27.986;2022-08-01T05:02:06;9.63;;;8.63;;
32826;SDS011;51059;42.058;27.986;2022-08-01T05:04:33;7.85;;;5.53;;
32826;SDS011;51059;42.058;27.986;2022-08-01T05:06:59;5.70;;;4.38;;
32826;SDS011;51059;42.058;27.986;2022-08-01T05:09:25;7.60;;;5.68;;
32826;SDS011;51059;42.058;27.986;2022-08-01T05:11:51;6.22;;;5.30;;
32826;SDS011;51059;42.058;27.986;2022-08-01T05:14:17;5.32;;;4.65;;
32826;SDS011;51059;42.058;27.986;2022-08-01T05:16:42;8.15;;;4.32;;
32826;SDS011;51059;42.058;27.986;2022-08-01T05:19:09;5.05;;;3.63;;
32826;SDS011;51059;42.058;27.986;2022-08-01T05:21:35;6.70;;;3.25;;
32826;SDS011;51059;42.058;27.986;2022-08-01T05:24:00;6.07;;;3.58;;
32826;SDS011;51059;42.058;27.986;2022-08-01T05:26:26;4.80;;;3.47;;
32826;SDS011;51059;42.058;27.986;2022-08-01T05:28:51;5.75;;;4.60;;
32826;SDS011;51059;42.058;27.986;2022-08-01T05:31:17;5.47;;;3.97;;
32826;SDS011;51059;42.058;27.986;2022-08-01T05:33:43;5.70;;;3.10;;
32826;SDS011;51059;42.058;27.986;2022-08-01T05:36:09;6.90;;;2.55;;
32826;SDS011;51059;42.058;27.986;2022-08-01T05:38:34;4.68;;;2.80;;
32826;SDS011;51059;42.058;27.986;2022-08-01T05:41:00;6.68;;;2.70;;
32826;SDS011;51059;42.058;27.986;2022-08-01T05:43:26;6.18;;;2.30;;
32826;SDS011;51059;42.058;27.986;2022-08-01T05:45:51;3.58;;;3.25;;
32826;SDS011;51059;42.058;27.986;2022-08-01T05:48:17;3.58;;;2.50;;
32826;SDS011;51059;42.058;27.986;2022-08-01T05:50:42;8.32;;;4.05;;
32826;SDS011;51059;42.058;27.986;2022-08-01T05:53:08;5.10;;;2.92;;
32826;SDS011;51059;42.058;27.986;2022-08-01T05:55:34;3.88;;;2.28;;
32826;SDS011;51059;42.058;27.986;2022-08-01T05:58:00;6.30;;;2.72;;
32826;SDS011;51059;42.058;27.986;2022-08-01T06:00:25;4.30;;;2.72;;
32826;SDS011;51059;42.058;27.986;2022-08-01T06:02:51;4.47;;;2.72;;
32826;SDS011;51059;42.058;27.986;2022-08-01T06:05:16;5.43;;;2.88;;
32826;SDS011;51059;42.058;27.986;2022-08-01T06:07:42;7.28;;;2.10;;
32826;SDS011;51059;42.058;27.986;2022-08-01T06:10:07;4.90;;;2.10;;
32826;SDS011;51059;42.058;27.986;2022-08-01T06:12:33;4.55;;;2.20;;
32826;SDS011;51059;42.058;27.986;2022-08-01T06:14:59;4.00;;;2.20;;
32826;SDS011;51059;42.058;27.986;2022-08-01T06:17:25;7.68;;;2.50;;
32826;SDS011;51059;42.058;27.986;2022-08-01T06:19:50;6.45;;;2.53;;
32826;SDS011;51059;42.058;27.986;2022-08-01T06:22:16;4.57;;;2.78;;
32826;SDS011;51059;42.058;27.986;2022-08-01T06:24:41;4.07;;;2.50;;
32826;SDS011;51059;42.058;27.986;2022-08-01T06:27:07;3.28;;;2.60;;
32826;SDS011;51059;42.058;27.986;2022-08-01T06:29:32;5.90;;;3.08;;
32826;SDS011;51059;42.058;27.986;2022-08-01T06:31:59;5.43;;;2.80;;
32826;SDS011;51059;42.058;27.986;2022-08-01T06:34:25;3.88;;;2.65;;
32826;SDS011;51059;42.058;27.986;2022-08-01T06:36:51;4.45;;;3.08;;
32826;SDS011;51059;42.058;27.986;2022-08-01T06:39:16;3.40;;;2.85;;
32826;SDS011;51059;42.058;27.986;2022-08-01T06:41:42;5.60;;;2.97;;
32826;SDS011;51059;42.058;27.986;2022-08-01T06:44:11;7.32;;;2.85;;
32826;SDS011;51059;42.058;27.986;2022-08-01T06:46:37;7.20;;;2.90;;
32826;SDS011;51059;42.058;27.986;2022-08-01T06:49:02;10.15;;;3.20;;
32826;SDS011;51059;42.058;27.986;2022-08-01T06:51:28;4.35;;;2.90;;
32826;SDS011;51059;42.058;27.986;2022-08-01T06:53:53;4.75;;;3.38;;
32826;SDS011;51059;42.058;27.986;2022-08-01T06:56:21;7.43;;;3.03;;
32826;SDS011;51059;42.058;27.986;2022-08-01T06:58:46;4.22;;;2.97;;
32826;SDS011;51059;42.058;27.986;2022-08-01T07:01:12;4.80;;;3.00;;
32826;SDS011;51059;42.058;27.986;2022-08-01T07:03:38;5.47;;;3.10;;
32826;SDS011;51059;42.058;27.986;2022-08-01T07:06:03;4.90;;;3.55;;
32826;SDS011;51059;42.058;27.986;2022-08-01T07:08:29;5.43;;;3.10;;
32826;SDS011;51059;42.058;27.986;2022-08-01T07:10:55;3.60;;;2.97;;
32826;SDS011;51059;42.058;27.986;2022-08-01T07:13:24;4.95;;;3.10;;
32826;SDS011;51059;42.058;27.986;2022-08-01T07:15:51;4.43;;;3.22;;
32826;SDS011;51059;42.058;27.986;2022-08-01T07:18:17;5.00;;;2.80;;
32826;SDS011;51059;42.058;27.986;2022-08-01T07:20:43;5.15;;;2.78;;
32826;SDS011;51059;42.058;27.986;2022-08-01T07:23:11;11.85;;;2.95;;
32826;SDS011;51059;42.058;27.986;2022-08-01T07:25:37;7.60;;;2.90;;
32826;SDS011;51059;42.058;27.986;2022-08-01T07:28:03;10.75;;;3.13;;
32826;SDS011;51059;42.058;27.986;2022-08-01T07:30:29;4.50;;;2.70;;
32826;SDS011;51059;42.058;27.986;2022-08-01T07:32:54;6.70;;;2.97;;
32826;SDS011;51059;42.058;27.986;2022-08-01T07:35:20;4.43;;;3.00;;
32826;SDS011;51059;42.058;27.986;2022-08-01T07:37:45;3.83;;;2.88;;
32826;SDS011;51059;42.058;27.986;2022-08-01T07:40:11;7.38;;;2.75;;
32826;SDS011;51059;42.058;27.986;2022-08-01T07:42:36;8.02;;;2.78;;
32826;SDS011;51059;42.058;27.986;2022-08-01T07:45:02;8.88;;;2.75;;
32826;SDS011;51059;42.058;27.986;2022-08-01T07:47:28;4.47;;;2.80;;
32826;SDS011;51059;42.058;27.986;2022-08-01T07:49:58;3.90;;;2.67;;
32826;SDS011;51059;42.058;27.986;2022-08-01T07:52:25;4.03;;;2.65;;
32826;SDS011;51059;42.058;27.986;2022-08-01T07:54:52;5.72;;;2.60;;
32826;SDS011;51059;42.058;27.986;2022-08-01T07:57:17;5.80;;;2.67;;
32826;SDS011;51059;42.058;27.986;2022-08-01T07:59:43;5.68;;;2.70;;
32826;SDS011;51059;42.058;27.986;2022-08-01T08:02:08;13.77;;;2.70;;
32826;SDS011;51059;42.058;27.986;2022-08-01T08:04:34;9.13;;;2.78;;
32826;SDS011;51059;42.058;27.986;2022-08-01T08:06:59;4.35;;;2.10;;
32826;SDS011;51059;42.058;27.986;2022-08-01T08:09:25;7.95;;;2.70;;
32826;SDS011;51059;42.058;27.986;2022-08-01T08:11:51;7.03;;;2.58;;
32826;SDS011;51059;42.058;27.986;2022-08-01T08:14:17;4.38;;;2.60;;
32826;SDS011;51059;42.058;27.986;2022-08-01T08:16:43;11.05;;;2.80;;
32826;SDS011;51059;42.058;27.986;2022-08-01T08:19:09;7.75;;;2.30;;
32826;SDS011;51059;42.058;27.986;2022-08-01T08:21:35;8.10;;;2.20;;
32826;SDS011;51059;42.058;27.986;2022-08-01T08:24:01;3.92;;;2.30;;
32826;SDS011;51059;42.058;27.986;2022-08-01T08:26:45;2.50;;;1.85;;
32826;SDS011;51059;42.058;27.986;2022-08-01T08:29:14;6.65;;;2.20;;
32826;SDS011;51059;42.058;27.986;2022-08-01T08:31:41;3.88;;;2.30;;
32826;SDS011;51059;42.058;27.986;2022-08-01T08:34:07;4.15;;;2.30;;
32826;SDS011;51059;42.058;27.986;2022-08-01T08:36:32;8.18;;;2.45;;
32826;SDS011;51059;42.058;27.986;2022-08-01T08:38:59;2.55;;;2.13;;
32826;SDS011;51059;42.058;27.986;2022-08-01T08:41:31;3.92;;;2.20;;
32826;SDS011;51059;42.058;27.986;2022-08-01T08:43:57;4.25;;;2.13;;
32826;SDS011;51059;42.058;27.986;2022-08-01T08:46:25;6.07;;;2.20;;
32826;SDS011;51059;42.058;27.986;2022-08-01T08:48:52;6.57;;;2.40;;
32826;SDS011;51059;42.058;27.986;2022-08-01T08:51:18;7.88;;;2.00;;
32826;SDS011;51059;42.058;27.986;2022-08-01T08:53:44;9.25;;;5.25;;
32826;SDS011;51059;42.058;27.986;2022-08-01T08:56:12;7.63;;;5.22;;
32826;SDS011;51059;42.058;27.986;2022-08-01T08:58:38;2.90;;;2.15;;
32826;SDS011;51059;42.058;27.986;2022-08-01T09:01:11;3.30;;;2.33;;
32826;SDS011;51059;42.058;27.986;2022-08-01T09:03:37;7.10;;;2.33;;
32826;SDS011;51059;42.058;27.986;2022-08-01T09:06:03;5.25;;;2.70;;
32826;SDS011;51059;42.058;27.986;2022-08-01T09:08:29;4.10;;;2.45;;
32826;SDS011;51059;42.058;27.986;2022-08-01T09:10:55;4.22;;;2.50;;
32826;SDS011;51059;42.058;27.986;2022-08-01T09:13:21;3.72;;;2.55;;
32826;SDS011;51059;42.058;27.986;2022-08-01T09:15:47;4.90;;;2.40;;
32826;SDS011;51059;42.058;27.986;2022-08-01T09:18:25;10.05;;;2.60;;
32826;SDS011;51059;42.058;27.986;2022-08-01T09:21:15;3.67;;;2.50;;
32826;SDS011;51059;42.058;27.986;2022-08-01T09:26:22;4.57;;;2.90;;
32826;SDS011;51059;42.058;27.986;2022-08-01T09:28:55;3.05;;;2.75;;
32826;SDS011;51059;42.058;27.986;2022-08-01T09:31:20;7.85;;;3.08;;
32826;SDS011;51059;42.058;27.986;2022-08-01T09:33:50;3.78;;;2.88;;
32826;SDS011;51059;42.058;27.986;2022-08-01T09:36:18;6.30;;;2.47;;
32826;SDS011;51059;42.058;27.986;2022-08-01T09:38:45;5.70;;;2.40;;
32826;SDS011;51059;42.058;27.986;2022-08-01T09:41:11;3.10;;;2.15;;
32826;SDS011;51059;42.058;27.986;2022-08-01T09:43:37;4.40;;;2.78;;
32826;SDS011;51059;42.058;27.986;2022-08-01T09:46:10;10.45;;;2.47;;
32826;SDS011;51059;42.058;27.986;2022-08-01T09:48:39;4.90;;;2.65;;
32826;SDS011;51059;42.058;27.986;2022-08-01T09:51:27;3.13;;;2.90;;
32826;SDS011;51059;42.058;27.986;2022-08-01T09:53:54;3.95;;;2.45;;
32826;SDS011;51059;42.058;27.986;2022-08-01T09:56:20;3.20;;;2.50;;
32826;SDS011;51059;42.058;27.986;2022-08-01T09:58:54;3.72;;;2.67;;
32826;SDS011;51059;42.058;27.986;2022-08-01T10:01:21;3.92;;;2.63;;
32826;SDS011;51059;42.058;27.986;2022-08-01T10:03:49;3.28;;;2.80;;
32826;SDS011;51059;42.058;27.986;2022-08-01T10:06:29;5.57;;;2.45;;
32826;SDS011;51059;42.058;27.986;2022-08-01T10:08:55;4.50;;;2.42;;
32826;SDS011;51059;42.058;27.986;2022-08-01T10:11:20;6.03;;;2.55;;
32826;SDS011;51059;42.058;27.986;2022-08-01T10:13:46;2.65;;;2.45;;
32826;SDS011;51059;42.058;27.986;2022-08-01T10:16:12;7.65;;;2.83;;
32826;SDS011;51059;42.058;27.986;2022-08-01T10:18:38;6.85;;;3.00;;
32826;SDS011;51059;42.058;27.986;2022-08-01T10:21:06;4.68;;;2.80;;
32826;SDS011;51059;42.058;27.986;2022-08-01T10:23:36;9.05;;;2.60;;
32826;SDS011;51059;42.058;27.986;2022-08-01T10:26:03;3.13;;;2.80;;
32826;SDS011;51059;42.058;27.986;2022-08-01T10:28:31;5.55;;;2.78;;
32826;SDS011;51059;42.058;27.986;2022-08-01T10:30:57;8.77;;;3.00;;
32826;SDS011;51059;42.058;27.986;2022-08-01T10:33:23;5.20;;;2.70;;
32826;SDS011;51059;42.058;27.986;2022-08-01T10:35:52;5.35;;;2.70;;
32826;SDS011;51059;42.058;27.986;2022-08-01T10:38:18;9.23;;;3.20;;
32826;SDS011;51059;42.058;27.986;2022-08-01T10:40:43;4.20;;;2.50;;
32826;SDS011;51059;42.058;27.986;2022-08-01T10:43:10;8.88;;;3.05;;
32826;SDS011;51059;42.058;27.986;2022-08-01T10:45:36;6.28;;;2.92;;
32826;SDS011;51059;42.058;27.986;2022-08-01T10:48:15;4.57;;;3.20;;
32826;SDS011;51059;42.058;27.986;2022-08-01T10:50:45;4.15;;;3.13;;
32826;SDS011;51059;42.058;27.986;2022-08-01T10:53:19;7.47;;;3.03;;
32826;SDS011;51059;42.058;27.986;2022-08-01T10:55:52;4.97;;;3.20;;
32826;SDS011;51059;42.058;27.986;2022-08-01T10:58:23;5.80;;;3.10;;
32826;SDS011;51059;42.058;27.986;2022-08-01T11:03:42;4.05;;;2.78;;
32826;SDS011;51059;42.058;27.986;2022-08-01T11:06:20;7.40;;;2.90;;
32826;SDS011;51059;42.058;27.986;2022-08-01T11:08:51;4.53;;;3.00;;
32826;SDS011;51059;42.058;27.986;2022-08-01T11:11:18;6.88;;;3.33;;
32826;SDS011;51059;42.058;27.986;2022-08-01T11:14:00;11.13;;;2.97;;
32826;SDS011;51059;42.058;27.986;2022-08-01T11:16:27;5.93;;;3.40;;
32826;SDS011;51059;42.058;27.986;2022-08-01T11:18:53;8.60;;;3.42;;
32826;SDS011;51059;42.058;27.986;2022-08-01T11:21:19;3.90;;;2.90;;
32826;SDS011;51059;42.058;27.986;2022-08-01T11:23:49;4.75;;;2.90;;
32826;SDS011;51059;42.058;27.986;2022-08-01T11:26:18;4.90;;;2.90;;
32826;SDS011;51059;42.058;27.986;2022-08-01T11:28:44;5.00;;;2.75;;
32826;SDS011;51059;42.058;27.986;2022-08-01T11:36:16;4.43;;;2.90;;
32826;SDS011;51059;42.058;27.986;2022-08-01T11:38:49;7.93;;;2.92;;
32826;SDS011;51059;42.058;27.986;2022-08-01T11:41:35;7.90;;;2.72;;
32826;SDS011;51059;42.058;27.986;2022-08-01T11:47:12;8.70;;;3.20;;
32826;SDS011;51059;42.058;27.986;2022-08-01T11:52:19;7.55;;;2.45;;
32826;SDS011;51059;42.058;27.986;2022-08-01T11:54:53;3.40;;;2.80;;
32826;SDS011;51059;42.058;27.986;2022-08-01T11:57:23;6.05;;;3.08;;
32826;SDS011;51059;42.058;27.986;2022-08-01T11:59:51;2.85;;;2.60;;
32826;SDS011;51059;42.058;27.986;2022-08-01T12:02:21;4.55;;;2.80;;
32826;SDS011;51059;42.058;27.986;2022-08-01T12:04:53;7.47;;;2.70;;
32826;SDS011;51059;42.058;27.986;2022-08-01T12:07:23;4.25;;;2.45;;
32826;SDS011;51059;42.058;27.986;2022-08-01T12:09:57;3.17;;;2.85;;
32826;SDS011;51059;42.058;27.986;2022-08-01T12:12:34;2.80;;;2.60;;
32826;SDS011;51059;42.058;27.986;2022-08-01T12:15:01;4.47;;;2.88;;
32826;SDS011;51059;42.058;27.986;2022-08-01T12:17:33;4.18;;;2.80;;
32826;SDS011;51059;42.058;27.986;2022-08-01T12:19:59;6.10;;;2.97;;
32826;SDS011;51059;42.058;27.986;2022-08-01T12:22:25;3.97;;;2.88;;
32826;SDS011;51059;42.058;27.986;2022-08-01T12:24:51;6.93;;;2.65;;
32826;SDS011;51059;42.058;27.986;2022-08-01T12:27:27;5.68;;;3.08;;
32826;SDS011;51059;42.058;27.986;2022-08-01T12:29:54;6.13;;;2.78;;
32826;SDS011;51059;42.058;27.986;2022-08-01T12:32:25;4.85;;;3.00;;
32826;SDS011;51059;42.058;27.986;2022-08-01T12:34:56;3.83;;;2.63;;
32826;SDS011;51059;42.058;27.986;2022-08-01T12:37:26;6.97;;;3.20;;
32826;SDS011;51059;42.058;27.986;2022-08-01T12:39:51;3.63;;;3.00;;
32826;SDS011;51059;42.058;27.986;2022-08-01T12:42:18;24.05;;;4.00;;
32826;SDS011;51059;42.058;27.986;2022-08-01T12:44:44;6.63;;;3.00;;
32826;SDS011;51059;42.058;27.986;2022-08-01T12:47:11;5.22;;;2.65;;
32826;SDS011;51059;42.058;27.986;2022-08-01T12:49:37;9.48;;;2.80;;
32826;SDS011;51059;42.058;27.986;2022-08-01T12:52:04;3.55;;;2.70;;
32826;SDS011;51059;42.058;27.986;2022-08-01T12:54:29;5.13;;;2.70;;
32826;SDS011;51059;42.058;27.986;2022-08-01T12:56:55;6.05;;;2.80;;
32826;SDS011;51059;42.058;27.986;2022-08-01T12:59:26;7.85;;;2.97;;
32826;SDS011;51059;42.058;27.986;2022-08-01T13:01:53;5.85;;;3.20;;
32826;SDS011;51059;42.058;27.986;2022-08-01T13:04:19;4.63;;;3.17;;
32826;SDS011;51059;42.058;27.986;2022-08-01T13:06:46;3.08;;;2.53;;
32826;SDS011;51059;42.058;27.986;2022-08-01T13:09:12;6.60;;;2.90;;
32826;SDS011;51059;42.058;27.986;2022-08-01T13:11:41;5.68;;;2.90;;
32826;SDS011;51059;42.058;27.986;2022-08-01T13:14:08;4.05;;;2.60;;
32826;SDS011;51059;42.058;27.986;2022-08-01T13:16:34;4.07;;;2.67;;
32826;SDS011;51059;42.058;27.986;2022-08-01T13:19:11;3.83;;;2.60;;
32826;SDS011;51059;42.058;27.986;2022-08-01T13:21:36;6.30;;;2.60;;
32826;SDS011;51059;42.058;27.986;2022-08-01T13:26:44;5.82;;;2.78;;
32826;SDS011;51059;42.058;27.986;2022-08-01T13:29:16;6.28;;;2.55;;
32826;SDS011;51059;42.058;27.986;2022-08-01T13:31:45;8.43;;;2.85;;
32826;SDS011;51059;42.058;27.986;2022-08-01T13:34:11;9.80;;;2.53;;
32826;SDS011;51059;42.058;27.986;2022-08-01T13:36:37;4.28;;;2.90;;
32826;SDS011;51059;42.058;27.986;2022-08-01T13:39:04;10.32;;;2.95;;
32826;SDS011;51059;42.058;27.986;2022-08-01T13:41:48;7.55;;;2.70;;
32826;SDS011;51059;42.058;27.986;2022-08-01T13:44:14;8.55;;;3.10;;
32826;SDS011;51059;42.058;27.986;2022-08-01T13:46:40;7.82;;;2.83;;
32826;SDS011;51059;42.058;27.986;2022-08-01T13:49:09;4.05;;;2.88;;
32826;SDS011;51059;42.058;27.986;2022-08-01T13:51:35;3.63;;;2.78;;
32826;SDS011;51059;42.058;27.986;2022-08-01T13:54:01;7.22;;;3.33;;
32826;SDS011;51059;42.058;27.986;2022-08-01T13:56:27;4.68;;;2.88;;
32826;SDS011;51059;42.058;27.986;2022-08-01T13:58:53;6.57;;;2.70;;
32826;SDS011;51059;42.058;27.986;2022-08-01T14:01:19;3.28;;;2.97;;
32826;SDS011;51059;42.058;27.986;2022-08-01T14:03:45;8.85;;;2.95;;
32826;SDS011;51059;42.058;27.986;2022-08-01T14:06:11;5.28;;;2.75;;
32826;SDS011;51059;42.058;27.986;2022-08-01T14:08:37;3.42;;;2.67;;
32826;SDS011;51059;42.058;27.986;2022-08-01T14:11:03;5.57;;;2.65;;
32826;SDS011;51059;42.058;27.986;2022-08-01T14:13:28;9.15;;;2.88;;
32826;SDS011;51059;42.058;27.986;2022-08-01T14:15:54;6.88;;;2.90;;
32826;SDS011;51059;42.058;27.986;2022-08-01T14:18:20;7.45;;;2.95;;
32826;SDS011;51059;42.058;27.986;2022-08-01T14:20:46;6.43;;;3.03;;
32826;SDS011;51059;42.058;27.986;2022-08-01T14:23:11;7.93;;;3.10;;
32826;SDS011;51059;42.058;27.986;2022-08-01T14:25:37;6.78;;;2.75;;
32826;SDS011;51059;42.058;27.986;2022-08-01T14:28:03;10.00;;;2.90;;
32826;SDS011;51059;42.058;27.986;2022-08-01T14:30:29;11.13;;;3.47;;
32826;SDS011;51059;42.058;27.986;2022-08-01T14:32:54;9.18;;;3.10;;
32826;SDS011;51059;42.058;27.986;2022-08-01T14:35:20;7.97;;;3.33;;
32826;SDS011;51059;42.058;27.986;2022-08-01T14:37:46;7.65;;;2.83;;
32826;SDS011;51059;42.058;27.986;2022-08-01T14:40:11;9.43;;;2.92;;
32826;SDS011;51059;42.058;27.986;2022-08-01T14:42:38;16.83;;;3.10;;
32826;SDS011;51059;42.058;27.986;2022-08-01T14:45:04;9.02;;;3.10;;
32826;SDS011;51059;42.058;27.986;2022-08-01T14:47:37;7.30;;;3.05;;
32826;SDS011;51059;42.058;27.986;2022-08-01T14:50:06;5.07;;;3.00;;
32826;SDS011;51059;42.058;27.986;2022-08-01T14:52:34;10.65;;;3.30;;
32826;SDS011;51059;42.058;27.986;2022-08-01T14:55:00;8.10;;;2.65;;
32826;SDS011;51059;42.058;27.986;2022-08-01T14:57:26;6.85;;;2.88;;
32826;SDS011;51059;42.058;27.986;2022-08-01T14:59:52;7.07;;;2.72;;